KMTH/MTH METAR and TAF weather

Enter ICAO airport designator
Station Type Date Time Source
KMTH METAR 2020/11/27 13:53 UTC NOAA

KMTH 271353Z AUTO 08005KT 10SM OVC060 26/20 A3008 RMK AO2 RAB24E33 SLP184 P0000 T02560200


Station Type Date Time Source
KMTH Decoded METAR 2020/11/27 13:53 UTC NOAA

MARATHON AIRPORT, FL, United States (KMTH) 24-44N 81-03W 2M
Nov 27, 2020 - 08:53 AM EST / 2020.11.27 1353 UTC
Wind: from the E (080 degrees) at 6 MPH (5 KT):0
Visibility: 10 mile(s):0
Sky conditions: overcast
Precipitation last hour: A trace
Temperature: 78.1 F (25.6 C)
Dew Point: 68.0 F (20.0 C)
Relative Humidity: 71%
Pressure (altimeter): 30.08 in. Hg (1018 hPa)
ob: KMTH 271353Z AUTO 08005KT 10SM OVC060 26/20 A3008 RMK AO2 RAB24E33 SLP184 P0000 T02560200
cycle: 14

Station Type Date Time Source
KMTH TAF 2020/11/27 12:34 UTC NOAA

TAF KMTH 271131Z 2712/2812 08009KT P6SM VCSH SCT035 BKN050
FM271500 09009KT P6SM SCT040 SCT070
FM272200 06005KT P6SM SCT040 SCT070

Example: see airport list